Time;durP1;ratioP1;P1;durP2;ratioP2;P2;SDS_P1;SDS_P2;PMS_P1;PMS_P2;Temp;Humidity;BMP_temperature;BMP_pressure;BME280_temperature;BME280_humidity;BME280_pressure;Samples;Min_cycle;Max_cycle;Signal;HPM_P1;HPM_P2
2022/04/25 00:01:58;;;;;;;20.02;14.77;;;;;;;;;;4968605;28;20070;-66
2022/04/25 00:04:44;;;;;;;15.85;13.00;;;;;;;;;;4975119;28;20038;-76
2022/04/25 00:07:29;;;;;;;19.20;14.43;;;;;;;;;;4972159;28;20477;-77
2022/04/25 00:10:14;;;;;;;15.70;13.00;;;;;;;;;;4955302;28;20127;-76
2022/04/25 00:13:00;;;;;;;17.45;14.48;;;;;;;;;;4983023;28;20472;-76
2022/04/25 00:15:45;;;;;;;15.68;12.88;;;;;;;;;;4968924;28;20097;-76
2022/04/25 00:18:30;;;;;;;15.90;13.55;;;;;;;;;;4972819;28;20472;-76
2022/04/25 00:21:16;;;;;;;16.38;14.00;;;;;;;;;;4966395;28;20109;-62
2022/04/25 00:24:01;;;;;;;15.68;13.07;;;;;;;;;;4973008;28;20034;-67
2022/04/25 00:26:46;;;;;;;16.58;13.60;;;;;;;;;;4973172;28;20042;-65
2022/04/25 00:29:31;;;;;;;14.13;12.63;;;;;;;;;;4972431;28;20039;-70
2022/04/25 00:32:17;;;;;;;16.63;13.07;;;;;;;;;;4986142;28;20039;-69
2022/04/25 00:35:03;;;;;;;14.52;12.52;;;;;;;;;;4992338;28;20125;-66
2022/04/25 00:37:49;;;;;;;15.13;12.68;;;;;;;;;;5002824;28;20030;-66
2022/04/25 00:40:35;;;;;;;17.63;13.98;;;;;;;;;;4976220;28;20042;-67
2022/04/25 00:43:20;;;;;;;16.80;12.60;;;;;;;;;;4978431;28;20074;-65
2022/04/25 00:46:06;;;;;;;15.55;13.52;;;;;;;;;;4971064;28;20047;-70
2022/04/25 00:48:52;;;;;;;18.33;13.25;;;;;;;;;;4987836;28;20413;-67
2022/04/25 00:51:37;;;;;;;19.55;14.52;;;;;;;;;;4971662;28;20050;-65
2022/04/25 00:54:22;;;;;;;17.23;13.93;;;;;;;;;;4972534;28;20041;-67
2022/04/25 00:57:08;;;;;;;18.45;14.50;;;;;;;;;;4971955;28;20035;-67
2022/04/25 00:59:54;;;;;;;17.00;13.82;;;;;;;;;;4978699;28;20057;-65
2022/04/25 01:02:40;;;;;;;18.13;15.80;;;;;;;;;;4974538;28;20377;-65
2022/04/25 01:05:25;;;;;;;21.95;17.50;;;;;;;;;;4989868;28;20038;-64
2022/04/25 01:08:10;;;;;;;19.58;16.90;;;;;;;;;;4977334;28;20026;-64
2022/04/25 01:10:55;;;;;;;20.65;17.20;;;;;;;;;;4987372;28;20031;-64
2022/04/25 01:13:43;;;;;;;21.95;17.85;;;;;;;;;;4993135;28;20038;-64
2022/04/25 01:16:28;;;;;;;19.67;17.08;;;;;;;;;;4981172;28;20206;-66
2022/04/25 01:19:14;;;;;;;22.48;19.20;;;;;;;;;;4980284;28;20485;-74
2022/04/25 01:22:02;;;;;;;21.00;18.30;;;;;;;;;;4975183;28;20043;-73
2022/04/25 01:27:51;;;;;;;22.75;18.08;;;;;;;;;;4971331;28;20477;-73
2022/04/25 01:30:36;;;;;;;18.13;16.17;;;;;;;;;;4927248;28;20065;-73
2022/04/25 01:33:22;;;;;;;20.40;17.42;;;;;;;;;;4969460;28;20134;-76
2022/04/25 01:36:07;;;;;;;24.20;19.25;;;;;;;;;;4972002;28;20041;-64
2022/04/25 01:38:53;;;;;;;20.58;18.38;;;;;;;;;;4972197;28;20241;-64
2022/04/25 01:41:40;;;;;;;20.83;17.63;;;;;;;;;;4962616;28;20035;-65
2022/04/25 01:44:25;;;;;;;21.60;19.08;;;;;;;;;;4975017;28;20503;-65
2022/04/25 01:47:11;;;;;;;21.52;19.23;;;;;;;;;;4974854;28;20050;-68
2022/04/25 01:49:56;;;;;;;24.10;19.90;;;;;;;;;;4977187;28;20042;-68
2022/04/25 01:52:42;;;;;;;21.40;19.10;;;;;;;;;;4966059;28;20118;-66
2022/04/25 01:55:27;;;;;;;23.15;19.20;;;;;;;;;;4970210;28;20122;-62
2022/04/25 01:58:13;;;;;;;21.85;19.52;;;;;;;;;;4983759;28;20082;-62
2022/04/25 02:00:58;;;;;;;20.67;18.55;;;;;;;;;;4969451;28;20035;-64
2022/04/25 02:03:45;;;;;;;21.13;18.83;;;;;;;;;;4997106;28;20041;-63
2022/04/25 02:06:30;;;;;;;21.05;18.73;;;;;;;;;;4976487;28;20019;-66
2022/04/25 02:09:17;;;;;;;22.73;19.88;;;;;;;;;;4970876;28;20129;-64
2022/04/25 02:12:02;;;;;;;22.95;19.40;;;;;;;;;;4972648;28;20089;-62
2022/04/25 02:14:48;;;;;;;21.77;19.20;;;;;;;;;;4978098;28;20035;-62
2022/04/25 02:17:33;;;;;;;24.08;20.60;;;;;;;;;;4964835;28;20039;-67
2022/04/25 02:20:18;;;;;;;24.20;19.88;;;;;;;;;;4948064;28;20045;-68
2022/04/25 02:23:04;;;;;;;23.30;20.58;;;;;;;;;;4972798;28;20071;-63
2022/04/25 02:25:49;;;;;;;25.67;19.95;;;;;;;;;;4977978;28;20485;-64
2022/04/25 02:28:35;;;;;;;23.75;19.35;;;;;;;;;;4968058;28;20046;-65
2022/04/25 02:31:20;;;;;;;23.58;21.08;;;;;;;;;;4975143;28;20044;-63
2022/04/25 02:34:06;;;;;;;23.45;20.90;;;;;;;;;;4980506;28;20045;-63
2022/04/25 02:36:51;;;;;;;24.15;20.88;;;;;;;;;;4973887;28;20638;-64
2022/04/25 02:39:36;;;;;;;25.70;22.85;;;;;;;;;;4961644;28;20035;-62
2022/04/25 02:42:21;;;;;;;24.10;21.60;;;;;;;;;;4969369;28;20053;-64
2022/04/25 02:45:07;;;;;;;25.10;22.15;;;;;;;;;;4984126;28;20370;-63
2022/04/25 02:47:53;;;;;;;23.50;20.55;;;;;;;;;;4968122;28;20613;-63
2022/04/25 02:50:39;;;;;;;24.75;21.73;;;;;;;;;;4969981;28;20375;-76
2022/04/25 02:53:24;;;;;;;24.42;20.90;;;;;;;;;;4977997;28;20051;-74
2022/04/25 02:56:09;;;;;;;25.98;20.13;;;;;;;;;;4965704;28;20463;-75
2022/04/25 02:58:54;;;;;;;31.67;23.17;;;;;;;;;;4969251;28;20037;-75
2022/04/25 03:01:40;;;;;;;22.83;20.13;;;;;;;;;;4969462;28;20129;-75
2022/04/25 03:04:25;;;;;;;23.83;20.80;;;;;;;;;;4969785;28;20109;-75
2022/04/25 03:07:10;;;;;;;22.85;20.40;;;;;;;;;;4983649;28;20461;-67
2022/04/25 03:09:56;;;;;;;24.85;20.45;;;;;;;;;;5000118;28;20120;-65
2022/04/25 03:12:41;;;;;;;24.05;21.38;;;;;;;;;;4972561;28;20488;-65
2022/04/25 03:15:26;;;;;;;25.40;21.52;;;;;;;;;;4981633;28;20042;-65
2022/04/25 03:18:12;;;;;;;24.08;21.48;;;;;;;;;;4987213;28;20066;-67
2022/04/25 03:20:57;;;;;;;23.20;20.70;;;;;;;;;;4972850;28;20034;-67
2022/04/25 03:23:42;;;;;;;22.90;20.08;;;;;;;;;;4982374;28;20451;-75
2022/04/25 03:26:28;;;;;;;24.33;20.92;;;;;;;;;;4982621;28;20062;-64
2022/04/25 03:29:13;;;;;;;24.15;21.13;;;;;;;;;;4972593;28;20082;-65
2022/04/25 03:31:58;;;;;;;23.83;20.83;;;;;;;;;;4969174;28;20045;-65
2022/04/25 03:34:44;;;;;;;26.63;21.80;;;;;;;;;;4979402;28;20038;-68
2022/04/25 03:37:30;;;;;;;24.13;20.73;;;;;;;;;;4968590;28;20485;-66
2022/04/25 03:40:16;;;;;;;24.70;22.00;;;;;;;;;;4979929;28;20045;-67
2022/04/25 03:43:02;;;;;;;23.63;20.95;;;;;;;;;;4969433;28;20462;-64
2022/04/25 03:45:47;;;;;;;24.63;21.65;;;;;;;;;;4967722;28;20035;-65
2022/04/25 03:48:32;;;;;;;24.60;20.38;;;;;;;;;;4968983;28;20390;-65
2022/04/25 03:51:17;;;;;;;23.90;21.10;;;;;;;;;;4969141;28;20058;-66
2022/04/25 03:54:03;;;;;;;23.83;19.85;;;;;;;;;;4970130;28;20066;-65
2022/04/25 03:59:52;;;;;;;23.88;20.33;;;;;;;;;;4970061;28;20057;-67
2022/04/25 04:02:37;;;;;;;23.75;20.95;;;;;;;;;;4973590;28;20042;-73
2022/04/25 04:05:22;;;;;;;23.67;21.17;;;;;;;;;;4974668;28;20501;-67
2022/04/25 04:08:08;;;;;;;23.13;19.23;;;;;;;;;;4972780;28;20038;-67
2022/04/25 04:10:54;;;;;;;25.38;22.17;;;;;;;;;;4971810;28;20049;-65
2022/04/25 04:13:39;;;;;;;25.38;22.50;;;;;;;;;;4973049;28;20089;-65
2022/04/25 04:16:24;;;;;;;21.73;19.40;;;;;;;;;;4970003;28;20057;-65
2022/04/25 04:19:10;;;;;;;26.25;21.63;;;;;;;;;;4972607;28;20073;-63
2022/04/25 04:21:55;;;;;;;23.58;20.25;;;;;;;;;;4988646;28;20043;-65
2022/04/25 04:24:40;;;;;;;26.17;21.42;;;;;;;;;;4976476;28;20035;-67
2022/04/25 04:27:25;;;;;;;25.33;20.38;;;;;;;;;;4970783;28;20054;-66
2022/04/25 04:30:12;;;;;;;25.92;22.27;;;;;;;;;;4972112;28;20039;-67
2022/04/25 04:32:57;;;;;;;33.35;25.50;;;;;;;;;;4987538;28;20034;-66
2022/04/25 04:38:46;;;;;;;26.65;21.15;;;;;;;;;;4972760;28;20039;-64
2022/04/25 04:41:31;;;;;;;29.35;22.88;;;;;;;;;;4978114;28;20382;-62
2022/04/25 04:44:17;;;;;;;26.55;23.65;;;;;;;;;;4971851;28;20027;-62
2022/04/25 04:47:03;;;;;;;26.48;23.45;;;;;;;;;;4971167;28;20030;-63
2022/04/25 04:49:48;;;;;;;24.65;21.63;;;;;;;;;;4972373;28;20394;-66
2022/04/25 04:52:33;;;;;;;24.73;21.15;;;;;;;;;;4970726;28;20031;-67
2022/04/25 04:55:19;;;;;;;25.75;22.83;;;;;;;;;;4971735;28;20031;-65
2022/04/25 04:58:04;;;;;;;27.63;23.35;;;;;;;;;;4972112;28;20045;-63
2022/04/25 05:00:49;;;;;;;27.70;23.83;;;;;;;;;;4974879;28;20031;-75
2022/04/25 05:03:35;;;;;;;28.25;24.33;;;;;;;;;;4984050;28;20050;-77
2022/04/25 05:06:20;;;;;;;27.92;22.83;;;;;;;;;;4964691;28;20082;-75
2022/04/25 05:09:05;;;;;;;31.05;23.00;;;;;;;;;;4989736;28;20046;-75
2022/04/25 05:11:50;;;;;;;26.50;22.80;;;;;;;;;;4968549;28;20089;-76
2022/04/25 05:14:36;;;;;;;30.60;25.15;;;;;;;;;;4985427;28;20295;-63
2022/04/25 05:17:22;;;;;;;27.05;23.20;;;;;;;;;;4973574;28;20034;-65
2022/04/25 05:20:08;;;;;;;27.73;23.08;;;;;;;;;;4969504;28;20420;-67
2022/04/25 05:22:54;;;;;;;30.33;24.13;;;;;;;;;;4964596;28;20039;-65
2022/04/25 05:25:40;;;;;;;26.90;22.00;;;;;;;;;;4971691;28;20206;-64
2022/04/25 05:28:25;;;;;;;27.85;23.33;;;;;;;;;;4971865;28;20045;-66
2022/04/25 05:31:11;;;;;;;26.73;23.38;;;;;;;;;;4971963;28;20042;-64
2022/04/25 05:33:56;;;;;;;29.15;21.60;;;;;;;;;;4971960;28;20035;-75
2022/04/25 05:36:42;;;;;;;27.17;23.17;;;;;;;;;;4972979;28;20173;-67
2022/04/25 05:39:27;;;;;;;25.95;23.02;;;;;;;;;;4982848;28;20088;-65
2022/04/25 05:42:12;;;;;;;27.58;24.02;;;;;;;;;;4972407;28;20035;-65
2022/04/25 05:44:58;;;;;;;27.88;22.70;;;;;;;;;;4970058;28;20022;-66
2022/04/25 05:47:44;;;;;;;26.80;23.45;;;;;;;;;;4953109;28;20285;-64
2022/04/25 05:53:33;;;;;;;29.60;23.42;;;;;;;;;;4969747;28;20459;-66
2022/04/25 05:56:18;;;;;;;26.25;22.73;;;;;;;;;;4975381;28;20058;-67
2022/04/25 05:59:03;;;;;;;24.48;21.83;;;;;;;;;;4992187;28;20121;-67
2022/04/25 06:01:49;;;;;;;28.17;23.67;;;;;;;;;;4978953;28;20054;-65
2022/04/25 06:04:34;;;;;;;28.65;23.77;;;;;;;;;;4983934;28;20031;-65
2022/04/25 06:07:19;;;;;;;28.13;24.52;;;;;;;;;;4970489;28;20031;-66
2022/04/25 06:10:05;;;;;;;27.40;23.90;;;;;;;;;;4967612;28;20051;-75
2022/04/25 06:12:51;;;;;;;27.25;22.50;;;;;;;;;;4963294;28;20070;-73
2022/04/25 06:15:36;;;;;;;27.02;22.67;;;;;;;;;;4965066;28;20553;-72
2022/04/25 06:18:22;;;;;;;26.67;22.70;;;;;;;;;;4967960;28;20034;-73
2022/04/25 06:21:07;;;;;;;24.70;21.42;;;;;;;;;;4976885;28;20049;-76
2022/04/25 06:23:53;;;;;;;24.58;21.45;;;;;;;;;;4967730;28;20042;-76
2022/04/25 06:26:38;;;;;;;24.08;21.05;;;;;;;;;;4968362;28;20082;-79
2022/04/25 06:29:24;;;;;;;27.85;22.10;;;;;;;;;;4966383;28;20039;-67
2022/04/25 06:32:10;;;;;;;22.85;20.42;;;;;;;;;;4979258;28;20038;-76
2022/04/25 06:34:55;;;;;;;25.15;19.95;;;;;;;;;;4965973;28;20038;-69
2022/04/25 06:37:41;;;;;;;20.13;17.67;;;;;;;;;;4976745;28;20129;-67
2022/04/25 06:40:26;;;;;;;21.63;19.33;;;;;;;;;;4965764;28;20077;-65
2022/04/25 06:43:13;;;;;;;19.88;17.77;;;;;;;;;;4960822;28;20045;-65
2022/04/25 06:45:59;;;;;;;20.75;18.48;;;;;;;;;;4967358;28;20027;-65
2022/04/25 06:49:19;;;;;;;20.50;17.55;;;;;;;;;;4967185;28;20516;-64
2022/04/25 06:51:53;;;;;;;19.05;16.60;;;;;;;;;;4969631;28;20035;-65
2022/04/25 06:54:39;;;;;;;18.67;16.67;;;;;;;;;;4967150;28;20190;-63
2022/04/25 06:57:24;;;;;;;17.95;16.05;;;;;;;;;;4963591;28;20061;-64
2022/04/25 07:00:11;;;;;;;19.02;16.58;;;;;;;;;;4962637;28;20121;-65
2022/04/25 07:02:56;;;;;;;18.42;16.13;;;;;;;;;;4965180;28;20359;-62
2022/04/25 07:05:42;;;;;;;21.05;15.18;;;;;;;;;;4965661;28;20070;-64
2022/04/25 07:08:28;;;;;;;17.67;15.15;;;;;;;;;;4966081;28;20042;-74
2022/04/25 07:11:13;;;;;;;17.98;15.68;;;;;;;;;;4968844;28;20042;-71
2022/04/25 07:13:59;;;;;;;17.58;15.23;;;;;;;;;;4965988;28;20066;-71
2022/04/25 07:16:45;;;;;;;18.65;14.75;;;;;;;;;;4966617;28;20462;-71
2022/04/25 07:19:31;;;;;;;20.08;15.00;;;;;;;;;;4970385;28;20030;-70
2022/04/25 07:31:28;;;;;;;16.70;13.88;;;;;;;;;;4974336;28;20031;-64
2022/04/25 07:34:13;;;;;;;16.73;14.85;;;;;;;;;;4963512;28;20035;-65
2022/04/25 07:36:58;;;;;;;14.88;13.25;;;;;;;;;;4966449;28;20489;-65
2022/04/25 07:39:45;;;;;;;17.05;13.57;;;;;;;;;;4964666;28;20061;-64
2022/04/25 07:42:31;;;;;;;14.13;12.32;;;;;;;;;;4963002;28;20031;-67
2022/04/25 07:45:17;;;;;;;15.07;13.43;;;;;;;;;;4964296;28;20623;-65
2022/04/25 07:48:02;;;;;;;17.30;13.13;;;;;;;;;;4966565;28;20030;-68
2022/04/25 07:50:47;;;;;;;15.65;13.77;;;;;;;;;;4988333;28;20049;-65
2022/04/25 07:53:33;;;;;;;14.63;12.65;;;;;;;;;;4975570;28;20117;-61
2022/04/25 07:56:18;;;;;;;15.43;13.82;;;;;;;;;;4962966;28;20113;-71
2022/04/25 07:59:05;;;;;;;15.13;13.48;;;;;;;;;;4962141;28;20425;-66
2022/04/25 08:01:50;;;;;;;16.02;12.68;;;;;;;;;;4963871;28;20067;-62
2022/04/25 08:04:36;;;;;;;15.32;13.35;;;;;;;;;;4963842;28;20057;-65
2022/04/25 08:07:22;;;;;;;16.13;13.60;;;;;;;;;;4966640;28;20034;-65
2022/04/25 08:10:07;;;;;;;14.82;12.98;;;;;;;;;;4966279;28;20121;-65
2022/04/25 08:19:00;;;;;;;14.13;11.57;;;;;;;;;;4966765;28;20494;-75
2022/04/25 08:21:46;;;;;;;14.43;12.57;;;;;;;;;;4954358;28;20049;-76
2022/04/25 08:24:31;;;;;;;18.40;13.63;;;;;;;;;;4949481;28;20035;-76
2022/04/25 08:27:16;;;;;;;14.35;12.85;;;;;;;;;;4966986;28;20454;-77
2022/04/25 08:30:02;;;;;;;16.65;13.27;;;;;;;;;;4965277;28;20066;-76
2022/04/25 08:32:47;;;;;;;15.32;13.05;;;;;;;;;;4966085;28;20046;-75
2022/04/25 08:35:32;;;;;;;15.68;12.13;;;;;;;;;;4973651;28;20485;-74
2022/04/25 08:38:17;;;;;;;15.13;12.60;;;;;;;;;;4978689;28;20074;-65
2022/04/25 08:41:06;;;;;;;13.77;11.98;;;;;;;;;;4952409;28;20411;-65
2022/04/25 08:43:51;;;;;;;13.70;12.23;;;;;;;;;;4967751;28;20193;-66
2022/04/25 08:46:39;;;;;;;16.67;13.00;;;;;;;;;;4970358;28;20035;-64
2022/04/25 08:49:24;;;;;;;17.52;12.77;;;;;;;;;;4969692;28;20067;-67
2022/04/25 08:52:10;;;;;;;15.65;14.00;;;;;;;;;;4969121;28;20034;-66
2022/04/25 08:54:56;;;;;;;15.38;11.95;;;;;;;;;;4969889;28;20026;-67
2022/04/25 08:57:43;;;;;;;14.15;12.60;;;;;;;;;;4970884;28;20046;-72
2022/04/25 09:00:28;;;;;;;14.27;12.15;;;;;;;;;;4979218;28;20113;-71
2022/04/25 09:03:14;;;;;;;13.98;12.27;;;;;;;;;;4966482;28;20469;-71
2022/04/25 09:05:59;;;;;;;13.88;12.30;;;;;;;;;;4955731;28;20660;-68
2022/04/25 09:08:44;;;;;;;15.77;12.07;;;;;;;;;;4968394;28;20043;-69
2022/04/25 09:14:35;;;;;;;14.68;12.48;;;;;;;;;;4968875;28;20466;-65
2022/04/25 09:17:20;;;;;;;13.68;12.23;;;;;;;;;;4974020;28;20026;-64
2022/04/25 09:20:07;;;;;;;14.38;12.23;;;;;;;;;;4982564;28;20393;-64
2022/04/25 09:22:52;;;;;;;15.23;13.32;;;;;;;;;;4979868;28;20073;-63
2022/04/25 09:25:39;;;;;;;14.23;12.38;;;;;;;;;;4981124;28;20058;-64
2022/04/25 09:28:24;;;;;;;14.30;12.25;;;;;;;;;;4974050;28;20031;-62
2022/04/25 09:31:12;;;;;;;14.13;11.63;;;;;;;;;;4967872;28;20581;-62
2022/04/25 09:34:13;;;;;;;14.45;12.52;;;;;;;;;;4964589;28;20043;-67
2022/04/25 09:36:59;;;;;;;16.13;13.60;;;;;;;;;;4966748;28;20038;-62
2022/04/25 09:39:44;;;;;;;15.55;13.52;;;;;;;;;;4954560;28;20038;-64
2022/04/25 09:42:29;;;;;;;16.63;13.20;;;;;;;;;;4968073;28;20043;-64
2022/04/25 09:45:17;;;;;;;17.05;13.07;;;;;;;;;;4967126;28;20562;-67
2022/04/25 09:48:08;;;;;;;14.82;12.70;;;;;;;;;;4971656;28;20480;-68
2022/04/25 09:51:01;;;;;;;15.20;12.63;;;;;;;;;;4965700;28;20486;-76
2022/04/25 09:53:46;;;;;;;16.13;12.40;;;;;;;;;;4965201;28;20034;-63
2022/04/25 09:56:34;;;;;;;13.35;11.95;;;;;;;;;;4968779;28;20475;-67
2022/04/25 09:59:21;;;;;;;19.50;11.18;;;;;;;;;;4990309;28;20035;-68
2022/04/25 10:02:07;;;;;;;13.60;11.75;;;;;;;;;;4982073;28;20035;-66
2022/04/25 10:04:52;;;;;;;14.48;12.48;;;;;;;;;;4979107;28;20038;-64
2022/04/25 10:07:37;;;;;;;15.45;11.88;;;;;;;;;;4959083;28;20035;-65
2022/04/25 10:10:23;;;;;;;14.95;12.38;;;;;;;;;;4969458;28;20049;-66
2022/04/25 10:13:09;;;;;;;14.88;12.85;;;;;;;;;;4967374;28;20062;-64
2022/04/25 10:15:56;;;;;;;14.48;12.85;;;;;;;;;;4963817;28;20039;-72
2022/04/25 10:18:42;;;;;;;13.15;11.45;;;;;;;;;;4983250;28;20109;-78
2022/04/25 10:21:29;;;;;;;16.02;11.70;;;;;;;;;;4970270;28;20062;-74
2022/04/25 10:24:15;;;;;;;12.98;11.05;;;;;;;;;;4972663;28;20077;-74
2022/04/25 10:27:07;;;;;;;15.45;12.88;;;;;;;;;;4970203;28;20042;-64
2022/04/25 10:29:54;;;;;;;15.27;12.85;;;;;;;;;;4971134;28;20045;-76
2022/04/25 10:32:40;;;;;;;16.88;14.05;;;;;;;;;;4973220;28;20368;-72
2022/04/25 10:35:32;;;;;;;14.65;12.98;;;;;;;;;;4968120;28;20458;-74
2022/04/25 10:38:47;;;;;;;16.23;13.43;;;;;;;;;;4968430;28;20031;-72
2022/04/25 10:44:36;;;;;;;14.18;12.68;;;;;;;;;;4966515;28;20118;-73
2022/04/25 10:47:22;;;;;;;13.30;11.65;;;;;;;;;;4965220;28;20113;-73
2022/04/25 10:50:07;;;;;;;13.57;11.88;;;;;;;;;;4965353;28;20039;-66
2022/04/25 10:52:56;;;;;;;14.90;12.98;;;;;;;;;;4966731;28;20496;-64
2022/04/25 10:55:43;;;;;;;15.85;14.15;;;;;;;;;;4961481;28;20035;-65
2022/04/25 10:58:28;;;;;;;13.13;11.60;;;;;;;;;;4962967;28;20414;-63
2022/04/25 11:01:29;;;;;;;14.32;11.55;;;;;;;;;;4965497;28;20466;-62
2022/04/25 11:04:14;;;;;;;13.05;11.27;;;;;;;;;;4990553;28;20070;-64
2022/04/25 11:07:20;;;;;;;11.98;10.10;;;;;;;;;;4980938;28;20058;-60
2022/04/25 11:10:06;;;;;;;13.70;11.60;;;;;;;;;;4965880;28;20035;-61
2022/04/25 11:12:58;;;;;;;12.73;11.05;;;;;;;;;;4966594;28;20073;-61
2022/04/25 11:15:45;;;;;;;15.82;11.93;;;;;;;;;;4966925;28;20027;-63
2022/04/25 11:18:34;;;;;;;12.70;10.10;;;;;;;;;;4966287;28;20487;-64
2022/04/25 11:21:29;;;;;;;12.98;11.07;;;;;;;;;;4979289;28;20086;-62
2022/04/25 11:24:28;;;;;;;14.48;11.65;;;;;;;;;;4964089;28;20453;-67
2022/04/25 11:27:14;;;;;;;16.17;11.85;;;;;;;;;;4980747;28;20042;-62
2022/04/25 11:30:13;;;;;;;12.15;10.57;;;;;;;;;;4982036;28;20044;-62
2022/04/25 11:33:02;;;;;;;12.07;10.65;;;;;;;;;;4958810;28;20034;-65
2022/04/25 11:35:58;;;;;;;12.93;9.55;;;;;;;;;;4966374;28;20484;-66
2022/04/25 11:41:49;;;;;;;12.60;10.63;;;;;;;;;;4968836;28;20042;-70
2022/04/25 11:44:38;;;;;;;15.50;11.32;;;;;;;;;;4965624;28;20059;-64
2022/04/25 11:47:23;;;;;;;15.68;12.65;;;;;;;;;;4963485;28;20041;-64
2022/04/25 11:50:12;;;;;;;13.15;11.75;;;;;;;;;;4977993;28;20470;-70
2022/04/25 11:52:57;;;;;;;13.57;11.93;;;;;;;;;;4965302;28;20155;-67
2022/04/25 11:55:42;;;;;;;12.65;11.02;;;;;;;;;;4964973;28;20047;-67
2022/04/25 11:58:28;;;;;;;13.35;11.85;;;;;;;;;;4967996;28;20144;-65
2022/04/25 12:01:30;;;;;;;13.48;12.07;;;;;;;;;;4952505;28;20027;-72
2022/04/25 12:04:18;;;;;;;14.45;12.55;;;;;;;;;;4969970;28;20026;-63
2022/04/25 12:07:08;;;;;;;14.35;11.88;;;;;;;;;;4978386;28;20054;-64
2022/04/25 12:16:01;;;;;;;15.93;12.60;;;;;;;;;;4958162;28;20100;-64
2022/04/25 12:18:51;;;;;;;15.98;12.73;;;;;;;;;;4965377;28;20494;-72
2022/04/25 12:21:40;;;;;;;16.25;13.77;;;;;;;;;;4962386;28;20121;-68
2022/04/25 12:24:25;;;;;;;15.98;13.43;;;;;;;;;;4954194;28;20030;-66
2022/04/25 12:27:11;;;;;;;15.68;13.80;;;;;;;;;;4960432;28;20109;-67
2022/04/25 12:30:03;;;;;;;15.13;12.77;;;;;;;;;;4961911;28;20039;-70
2022/04/25 12:32:49;;;;;;;15.70;13.63;;;;;;;;;;4955616;28;20125;-68
2022/04/25 12:35:38;;;;;;;16.00;12.63;;;;;;;;;;4957378;28;20684;-74
2022/04/25 12:38:37;;;;;;;14.17;12.67;;;;;;;;;;4966121;28;20133;-67
2022/04/25 12:41:31;;;;;;;17.70;14.27;;;;;;;;;;4966229;28;20057;-65
2022/04/25 12:44:17;;;;;;;14.60;13.10;;;;;;;;;;4969660;28;20035;-64
2022/04/25 12:47:05;;;;;;;17.95;14.88;;;;;;;;;;4979060;28;20033;-65
2022/04/25 12:49:51;;;;;;;16.13;13.63;;;;;;;;;;4970829;28;20034;-65
2022/04/25 12:52:54;;;;;;;15.15;13.55;;;;;;;;;;4971110;28;20301;-65
2022/04/25 12:55:44;;;;;;;15.88;13.90;;;;;;;;;;4970220;28;20046;-67
2022/04/25 12:58:29;;;;;;;;;;;;;;;;;;4969903;28;20039;-67
2022/04/25 13:01:30;;;;;;;15.20;12.77;;;;;;;;;;4964358;28;19969;-67
2022/04/25 13:04:19;;;;;;;13.70;11.38;;;;;;;;;;4951321;28;20118;-66
2022/04/25 13:07:04;;;;;;;14.65;10.80;;;;;;;;;;4966495;28;20141;-65
2022/04/25 13:09:53;;;;;;;11.88;10.18;;;;;;;;;;4981999;28;20614;-63
2022/04/25 13:12:40;;;;;;;13.15;10.30;;;;;;;;;;4969550;28;20074;-65
2022/04/25 13:15:26;;;;;;;12.43;9.75;;;;;;;;;;4953636;28;21465;-64
2022/04/25 13:18:11;;;;;;;15.20;10.43;;;;;;;;;;4979243;28;20035;-63
2022/04/25 13:20:56;;;;;;;12.63;9.75;;;;;;;;;;4967549;28;20047;-63
2022/04/25 13:23:42;;;;;;;12.30;9.50;;;;;;;;;;4965818;28;20450;-61
2022/04/25 13:26:28;;;;;;;11.25;8.77;;;;;;;;;;4954739;28;20069;-63
2022/04/25 13:29:13;;;;;;;11.90;8.90;;;;;;;;;;4966931;28;20042;-64
2022/04/25 13:31:59;;;;;;;11.05;8.65;;;;;;;;;;4982776;28;20491;-67
2022/04/25 13:34:44;;;;;;;10.20;8.25;;;;;;;;;;4975601;28;20421;-72
2022/04/25 13:37:30;;;;;;;10.25;8.38;;;;;;;;;;4968846;28;20117;-71
2022/04/25 13:40:16;;;;;;;9.60;7.03;;;;;;;;;;4977764;28;20046;-70
2022/04/25 13:43:02;;;;;;;10.13;7.15;;;;;;;;;;4975017;28;20065;-74
2022/04/25 13:45:47;;;;;;;8.75;7.45;;;;;;;;;;4965813;28;20034;-72
2022/04/25 13:48:33;;;;;;;9.38;7.38;;;;;;;;;;4965759;28;20635;-74
2022/04/25 13:51:18;;;;;;;8.38;6.85;;;;;;;;;;4962063;28;20034;-69
2022/04/25 13:54:03;;;;;;;7.05;5.35;;;;;;;;;;4968250;28;20035;-66
2022/04/25 13:56:48;;;;;;;7.82;6.47;;;;;;;;;;4975494;28;20027;-64
2022/04/25 13:59:34;;;;;;;7.28;5.70;;;;;;;;;;4967673;28;20285;-65
2022/04/25 14:05:23;;;;;;;5.60;4.45;;;;;;;;;;4962811;28;20049;-64
2022/04/25 14:08:10;;;;;;;6.38;4.78;;;;;;;;;;4961970;28;20034;-65
2022/04/25 14:10:55;;;;;;;7.10;4.05;;;;;;;;;;4967225;28;20039;-62
2022/04/25 14:13:40;;;;;;;4.95;3.45;;;;;;;;;;4964073;28;20042;-62
2022/04/25 14:16:26;;;;;;;4.00;3.33;;;;;;;;;;4961150;28;20039;-66
2022/04/25 14:19:11;;;;;;;4.22;3.55;;;;;;;;;;4953987;28;20164;-62
2022/04/25 14:21:58;;;;;;;3.90;3.15;;;;;;;;;;4956454;28;20042;-66
2022/04/25 14:24:43;;;;;;;5.68;3.72;;;;;;;;;;4965907;28;20035;-62
2022/04/25 14:27:29;;;;;;;4.53;3.30;;;;;;;;;;4963189;28;20039;-63
2022/04/25 14:30:14;;;;;;;6.18;4.68;;;;;;;;;;4960763;28;20043;-67
2022/04/25 14:32:59;;;;;;;4.90;4.07;;;;;;;;;;4971299;28;20388;-70
2022/04/25 14:35:45;;;;;;;9.82;4.40;;;;;;;;;;4961202;28;20394;-67
2022/04/25 14:38:30;;;;;;;4.35;3.95;;;;;;;;;;4942155;28;20042;-69
2022/04/25 14:41:15;;;;;;;5.32;4.28;;;;;;;;;;4950409;28;20296;-69
2022/04/25 14:44:01;;;;;;;5.75;4.65;;;;;;;;;;4951581;28;20051;-68
2022/04/25 14:46:46;;;;;;;6.65;4.50;;;;;;;;;;4961038;28;20046;-67
2022/04/25 14:55:39;;;;;;;5.20;4.45;;;;;;;;;;4972924;28;20039;-63
2022/04/25 14:58:25;;;;;;;5.28;4.10;;;;;;;;;;4953899;28;20470;-62
2022/04/25 15:01:10;;;;;;;7.38;4.60;;;;;;;;;;4951508;28;20030;-64
2022/04/25 15:03:56;;;;;;;4.88;4.07;;;;;;;;;;4976470;28;20041;-63
2022/04/25 15:06:41;;;;;;;5.68;4.22;;;;;;;;;;4981023;28;20042;-65
2022/04/25 15:09:29;;;;;;;9.63;4.40;;;;;;;;;;4979394;28;20117;-65
2022/04/25 15:12:14;;;;;;;5.07;3.72;;;;;;;;;;4951448;28;20038;-65
2022/04/25 15:14:59;;;;;;;6.45;3.63;;;;;;;;;;4980915;28;20267;-64
2022/04/25 15:17:47;;;;;;;4.95;3.78;;;;;;;;;;4964807;28;20059;-67
2022/04/25 15:20:33;;;;;;;5.18;3.97;;;;;;;;;;4965755;28;20042;-67
2022/04/25 15:23:18;;;;;;;4.70;3.47;;;;;;;;;;4967237;28;20362;-66
2022/04/25 15:26:03;;;;;;;4.82;3.83;;;;;;;;;;4970467;28;20092;-66
2022/04/25 15:28:48;;;;;;;5.18;3.45;;;;;;;;;;4962120;28;20394;-65
2022/04/25 15:31:34;;;;;;;6.60;3.60;;;;;;;;;;4953106;28;20031;-65
2022/04/25 15:34:19;;;;;;;4.70;3.60;;;;;;;;;;4966157;28;20122;-64
2022/04/25 15:37:04;;;;;;;4.72;3.42;;;;;;;;;;4952934;28;20070;-66
2022/04/25 15:39:49;;;;;;;5.70;3.42;;;;;;;;;;4954580;28;20043;-71
2022/04/25 15:42:35;;;;;;;3.67;3.03;;;;;;;;;;4967705;28;20042;-64
2022/04/25 15:45:20;;;;;;;4.18;3.33;;;;;;;;;;4966667;28;20095;-64
2022/04/25 15:48:06;;;;;;;4.10;3.05;;;;;;;;;;4977128;28;20093;-63
2022/04/25 15:50:51;;;;;;;6.13;3.72;;;;;;;;;;4970422;28;20640;-65
2022/04/25 15:59:45;;;;;;;5.45;3.83;;;;;;;;;;4985579;28;20565;-69
2022/04/25 16:02:30;;;;;;;3.70;3.20;;;;;;;;;;4962671;28;20132;-67
2022/04/25 16:05:15;;;;;;;4.88;3.42;;;;;;;;;;4972679;28;20045;-68
2022/04/25 16:08:01;;;;;;;5.03;3.53;;;;;;;;;;4966967;28;20243;-70
2022/04/25 16:10:46;;;;;;;4.57;3.35;;;;;;;;;;4980862;28;20338;-73
2022/04/25 16:13:31;;;;;;;4.10;3.20;;;;;;;;;;4966618;28;20030;-70
2022/04/25 16:16:17;;;;;;;6.18;4.72;;;;;;;;;;4969393;28;20039;-67
2022/04/25 16:19:02;;;;;;;5.15;3.65;;;;;;;;;;4973481;28;20042;-68
2022/04/25 16:21:47;;;;;;;6.43;4.63;;;;;;;;;;4970959;28;20030;-67
2022/04/25 16:24:33;;;;;;;6.00;4.55;;;;;;;;;;4966245;28;20146;-66
2022/04/25 16:27:18;;;;;;;6.85;5.07;;;;;;;;;;4969162;28;20381;-68
2022/04/25 16:30:06;;;;;;;6.88;4.57;;;;;;;;;;4970854;28;20489;-69
2022/04/25 16:32:52;;;;;;;7.13;4.82;;;;;;;;;;4951521;28;20054;-69
2022/04/25 16:35:37;;;;;;;6.28;4.35;;;;;;;;;;4972133;28;20537;-68
2022/04/25 16:38:23;;;;;;;5.68;4.53;;;;;;;;;;4966264;28;20027;-70
2022/04/25 16:41:09;;;;;;;8.23;4.50;;;;;;;;;;4970097;28;20038;-67
2022/04/25 16:43:54;;;;;;;6.82;4.20;;;;;;;;;;4968989;28;20151;-68
2022/04/25 16:46:42;;;;;;;7.13;4.43;;;;;;;;;;4969717;28;20050;-68
2022/04/25 16:49:27;;;;;;;6.47;4.38;;;;;;;;;;4967042;28;20074;-68
2022/04/25 16:52:12;;;;;;;4.53;3.75;;;;;;;;;;4966681;28;20553;-67
2022/04/25 16:54:58;;;;;;;4.85;3.70;;;;;;;;;;4963445;28;20041;-64
2022/04/25 16:57:43;;;;;;;7.88;4.35;;;;;;;;;;4969757;28;20098;-64
2022/04/25 17:00:28;;;;;;;5.65;4.32;;;;;;;;;;4977813;28;20505;-64
2022/04/25 17:03:14;;;;;;;6.57;4.30;;;;;;;;;;4963194;28;20084;-63
2022/04/25 17:05:59;;;;;;;5.28;4.13;;;;;;;;;;4972722;28;20464;-64
2022/04/25 17:08:45;;;;;;;7.38;4.63;;;;;;;;;;4968404;28;20031;-62
2022/04/25 17:11:31;;;;;;;7.90;5.05;;;;;;;;;;4968248;28;20050;-75
2022/04/25 17:14:16;;;;;;;5.90;4.25;;;;;;;;;;4970008;28;20023;-73